Time;durP1;ratioP1;P1;durP2;ratioP2;P2;SDS_P1;SDS_P2;PMS_P1;PMS_P2;Temp;Humidity;BMP_temperature;BMP_pressure;BME280_temperature;BME280_humidity;BME280_pressure;Samples;Min_cycle;Max_cycle;Signal;HPM_P1;HPM_P2
2023/03/22 00:00:48;;;;;;;17.02;2.92;;;;;;;;;;5103733;28;20039;-76
2023/03/22 00:03:14;;;;;;;18.38;2.92;;;;;;;;;;5114634;28;20038;-76
2023/03/22 00:05:39;;;;;;;22.05;2.55;;;;;;;;;;5113974;28;20031;-76
2023/03/22 00:08:06;;;;;;;14.35;2.47;;;;;;;;;;5113640;28;20035;-76
2023/03/22 00:10:32;;;;;;;23.65;2.80;;;;;;;;;;5114187;28;20474;-76
2023/03/22 00:12:58;;;;;;;12.93;2.20;;;;;;;;;;5113291;28;20032;-75
2023/03/22 00:15:23;;;;;;;17.98;2.38;;;;;;;;;;5114821;28;20062;-76
2023/03/22 00:17:49;;;;;;;18.88;2.85;;;;;;;;;;5114400;28;20043;-76
2023/03/22 00:20:16;;;;;;;13.52;2.08;;;;;;;;;;5114493;28;20024;-76
2023/03/22 00:22:42;;;;;;;17.90;2.63;;;;;;;;;;5105949;28;20028;-76
2023/03/22 00:25:09;;;;;;;20.33;2.45;;;;;;;;;;5111959;28;20036;-76
2023/03/22 00:27:35;;;;;;;12.90;2.30;;;;;;;;;;5112599;28;20064;-76
2023/03/22 00:30:00;;;;;;;11.32;2.47;;;;;;;;;;5113525;28;20035;-76
2023/03/22 00:32:26;;;;;;;15.07;2.03;;;;;;;;;;5104618;28;20118;-76
2023/03/22 00:34:51;;;;;;;15.02;2.30;;;;;;;;;;5113218;28;20072;-76
2023/03/22 00:37:17;;;;;;;17.50;3.45;;;;;;;;;;5113613;28;20047;-76
2023/03/22 00:39:43;;;;;;;12.73;2.15;;;;;;;;;;5113097;28;20042;-76
2023/03/22 00:42:09;;;;;;;24.00;2.47;;;;;;;;;;5113913;28;20036;-76
2023/03/22 00:44:35;;;;;;;11.43;1.65;;;;;;;;;;5101397;28;20031;-76
2023/03/22 00:47:00;;;;;;;21.63;3.17;;;;;;;;;;5112538;28;20039;-76
2023/03/22 00:49:26;;;;;;;19.23;2.72;;;;;;;;;;5102521;28;20028;-76
2023/03/22 00:51:52;;;;;;;19.60;2.03;;;;;;;;;;5105693;28;20038;-76
2023/03/22 00:54:17;;;;;;;16.38;2.30;;;;;;;;;;5100033;28;20490;-76
2023/03/22 00:56:46;;;;;;;13.15;2.42;;;;;;;;;;5106586;28;20088;-76
2023/03/22 00:59:12;;;;;;;18.63;2.10;;;;;;;;;;5106472;28;20066;-75
2023/03/22 01:01:37;;;;;;;17.27;2.50;;;;;;;;;;5112928;28;20041;-76
2023/03/22 01:04:04;;;;;;;19.05;2.35;;;;;;;;;;5113554;28;20449;-76
2023/03/22 01:06:30;;;;;;;13.82;1.83;;;;;;;;;;5104956;28;20506;-75
2023/03/22 01:08:56;;;;;;;23.95;2.33;;;;;;;;;;5102004;28;20440;-76
2023/03/22 01:11:22;;;;;;;19.60;2.38;;;;;;;;;;5110265;28;20027;-76
2023/03/22 01:13:47;;;;;;;20.35;2.13;;;;;;;;;;5113889;28;20050;-76
2023/03/22 01:16:13;;;;;;;14.13;2.03;;;;;;;;;;5112271;28;20036;-76
2023/03/22 01:18:38;;;;;;;13.77;2.65;;;;;;;;;;5110016;28;20047;-76
2023/03/22 01:21:05;;;;;;;13.25;1.45;;;;;;;;;;5111817;28;20028;-76
2023/03/22 01:23:30;;;;;;;17.48;1.75;;;;;;;;;;5108390;28;20078;-76
2023/03/22 01:25:56;;;;;;;9.85;1.88;;;;;;;;;;5110308;28;20429;-76
2023/03/22 01:28:22;;;;;;;15.88;2.00;;;;;;;;;;5110810;28;20032;-76
2023/03/22 01:30:47;;;;;;;10.70;1.88;;;;;;;;;;5106915;28;20411;-75
2023/03/22 01:33:13;;;;;;;8.07;1.35;;;;;;;;;;5110077;28;20042;-76
2023/03/22 01:35:38;;;;;;;8.13;1.50;;;;;;;;;;5113144;28;20463;-75
2023/03/22 01:38:04;;;;;;;14.68;1.58;;;;;;;;;;5112097;28;20038;-75
2023/03/22 01:40:30;;;;;;;11.23;1.33;;;;;;;;;;5113297;28;20524;-76
2023/03/22 01:42:55;;;;;;;11.25;1.83;;;;;;;;;;5109114;28;20536;-75
2023/03/22 01:45:36;;;;;;;6.15;1.60;;;;;;;;;;5113174;28;20044;-76
2023/03/22 01:48:11;;;;;;;6.72;1.33;;;;;;;;;;5102075;28;20035;-76
2023/03/22 01:50:38;;;;;;;10.68;1.40;;;;;;;;;;5113233;28;20035;-76
2023/03/22 01:53:05;;;;;;;10.60;2.70;;;;;;;;;;5110453;28;20118;-76
2023/03/22 01:55:32;;;;;;;12.85;1.33;;;;;;;;;;5109674;28;20039;-76
2023/03/22 01:57:58;;;;;;;7.28;1.48;;;;;;;;;;5109019;28;20039;-76
2023/03/22 02:00:23;;;;;;;12.15;1.92;;;;;;;;;;5111816;28;20039;-76
2023/03/22 02:02:50;;;;;;;7.82;1.25;;;;;;;;;;5112857;28;20049;-75
2023/03/22 02:05:16;;;;;;;4.30;0.98;;;;;;;;;;5111936;28;20035;-76
2023/03/22 02:07:43;;;;;;;15.43;1.92;;;;;;;;;;5105610;28;20089;-75
2023/03/22 02:10:19;;;;;;;11.32;1.73;;;;;;;;;;5112034;28;20039;-76
2023/03/22 02:12:48;;;;;;;11.05;2.20;;;;;;;;;;5105889;28;20040;-76
2023/03/22 02:15:39;;;;;;;9.10;1.02;;;;;;;;;;5113183;28;20027;-75
2023/03/22 02:18:15;;;;;;;10.63;1.23;;;;;;;;;;5105707;28;20035;-75
2023/03/22 02:21:05;;;;;;;11.45;1.05;;;;;;;;;;5110931;28;20043;-76
2023/03/22 02:23:49;;;;;;;7.90;1.85;;;;;;;;;;5112510;28;20031;-75
2023/03/22 02:26:29;;;;;;;20.90;1.35;;;;;;;;;;5111188;28;20048;-76
2023/03/22 02:29:21;;;;;;;4.88;1.23;;;;;;;;;;5109774;28;20036;-75
2023/03/22 02:32:24;;;;;;;5.45;0.80;;;;;;;;;;5112661;28;20036;-76
2023/03/22 02:35:11;;;;;;;6.60;0.82;;;;;;;;;;5114814;28;20505;-76
2023/03/22 02:37:39;;;;;;;6.50;0.82;;;;;;;;;;5108465;28;20078;-75
2023/03/22 02:40:10;;;;;;;1.40;0.43;;;;;;;;;;5116283;28;20498;-75
2023/03/22 02:43:14;;;;;;;8.57;1.30;;;;;;;;;;5116273;28;20028;-75
2023/03/22 02:45:53;;;;;;;4.20;0.90;;;;;;;;;;5079319;27;20100;-75
2023/03/22 02:48:29;;;;;;;7.90;1.08;;;;;;;;;;5104894;28;20035;-75
2023/03/22 02:51:17;;;;;;;6.95;1.02;;;;;;;;;;5110926;28;20135;-75
2023/03/22 02:54:05;;;;;;;6.55;1.17;;;;;;;;;;5115385;28;20092;-75
2023/03/22 02:56:34;;;;;;;6.53;1.58;;;;;;;;;;5114810;28;20114;-75
2023/03/22 02:59:02;;;;;;;6.85;0.70;;;;;;;;;;5107991;28;20039;-76
2023/03/22 03:01:30;;;;;;;3.53;1.30;;;;;;;;;;5114175;28;20379;-76
2023/03/22 03:03:59;;;;;;;7.82;0.90;;;;;;;;;;5101764;28;20032;-76
2023/03/22 03:06:28;;;;;;;6.50;0.90;;;;;;;;;;5114437;28;20050;-76
2023/03/22 03:08:56;;;;;;;9.60;1.27;;;;;;;;;;5112529;28;20035;-76
2023/03/22 03:11:22;;;;;;;7.95;1.48;;;;;;;;;;5114223;28;20035;-76
2023/03/22 03:13:49;;;;;;;4.68;1.05;;;;;;;;;;5116184;28;20028;-75
2023/03/22 03:16:20;;;;;;;4.30;1.00;;;;;;;;;;5114290;28;20023;-76
2023/03/22 03:18:49;;;;;;;8.93;1.13;;;;;;;;;;5115899;28;20088;-76
2023/03/22 03:21:17;;;;;;;5.20;0.82;;;;;;;;;;5114445;28;20114;-76
2023/03/22 03:23:58;;;;;;;5.50;0.80;;;;;;;;;;5115619;28;20055;-75
2023/03/22 03:26:23;;;;;;;2.72;0.68;;;;;;;;;;5112378;28;20054;-75
2023/03/22 03:29:12;;;;;;;1.95;0.95;;;;;;;;;;5104720;28;20035;-76
2023/03/22 03:31:45;;;;;;;5.82;0.75;;;;;;;;;;5102449;28;20110;-76
2023/03/22 03:34:22;;;;;;;1.88;0.85;;;;;;;;;;5115306;28;20379;-76
2023/03/22 03:37:09;;;;;;;3.67;0.75;;;;;;;;;;5109197;28;20043;-76
2023/03/22 03:39:39;;;;;;;5.05;0.90;;;;;;;;;;5105492;28;20110;-75
2023/03/22 03:42:06;;;;;;;2.53;0.73;;;;;;;;;;5107440;28;20119;-76
2023/03/22 03:44:33;;;;;;;7.63;0.75;;;;;;;;;;5113976;28;20034;-76
2023/03/22 03:46:59;;;;;;;1.98;0.60;;;;;;;;;;5104736;28;20102;-75
2023/03/22 03:49:26;;;;;;;2.55;0.73;;;;;;;;;;5115145;28;20082;-76
2023/03/22 03:51:52;;;;;;;5.03;1.30;;;;;;;;;;5114553;28;20027;-76
2023/03/22 03:54:18;;;;;;;0.55;0.35;;;;;;;;;;5113659;28;20497;-76
2023/03/22 03:56:46;;;;;;;5.03;0.70;;;;;;;;;;5105158;28;20369;-76
2023/03/22 03:59:14;;;;;;;1.80;0.45;;;;;;;;;;5105536;28;20039;-75
2023/03/22 04:01:48;;;;;;;7.53;0.88;;;;;;;;;;5114616;28;20035;-76
2023/03/22 04:04:16;;;;;;;1.75;0.57;;;;;;;;;;5105439;28;20061;-76
2023/03/22 04:06:42;;;;;;;3.20;1.00;;;;;;;;;;5114297;28;20039;-76
2023/03/22 04:09:08;;;;;;;2.97;0.88;;;;;;;;;;5109974;28;20369;-76
2023/03/22 04:11:33;;;;;;;3.60;0.68;;;;;;;;;;5114462;28;20069;-76
2023/03/22 04:13:59;;;;;;;2.75;0.70;;;;;;;;;;5114562;28;20464;-76
2023/03/22 04:16:24;;;;;;;3.33;0.60;;;;;;;;;;5098898;28;20395;-76
2023/03/22 04:18:50;;;;;;;6.25;0.73;;;;;;;;;;5101558;28;20043;-76
2023/03/22 04:21:15;;;;;;;2.55;0.77;;;;;;;;;;5113033;28;20106;-76
2023/03/22 04:23:41;;;;;;;1.00;0.45;;;;;;;;;;5110924;28;20042;-76
2023/03/22 04:26:06;;;;;;;3.28;0.80;;;;;;;;;;5114196;28;20039;-76
2023/03/22 04:28:32;;;;;;;4.72;0.50;;;;;;;;;;5110529;28;20030;-76
2023/03/22 04:30:58;;;;;;;4.85;0.70;;;;;;;;;;5114610;28;20036;-75
2023/03/22 04:33:23;;;;;;;3.72;0.68;;;;;;;;;;5113913;28;20039;-76
2023/03/22 04:35:49;;;;;;;5.03;0.70;;;;;;;;;;5113896;28;20055;-75
2023/03/22 04:38:16;;;;;;;5.78;0.93;;;;;;;;;;5100899;28;20126;-76
2023/03/22 04:40:45;;;;;;;4.68;0.77;;;;;;;;;;5114040;28;20356;-75
2023/03/22 04:43:11;;;;;;;6.32;1.15;;;;;;;;;;5113812;28;20082;-76
2023/03/22 04:45:36;;;;;;;11.77;1.45;;;;;;;;;;5111303;28;20036;-75
2023/03/22 04:48:01;;;;;;;4.15;0.98;;;;;;;;;;5113960;28;20043;-76
2023/03/22 04:50:27;;;;;;;9.63;1.20;;;;;;;;;;5113971;28;20085;-76
2023/03/22 04:52:52;;;;;;;10.82;1.27;;;;;;;;;;5110833;28;20467;-76
2023/03/22 04:55:18;;;;;;;9.80;1.50;;;;;;;;;;5114115;28;20435;-76
2023/03/22 04:57:43;;;;;;;20.00;2.30;;;;;;;;;;5103436;28;20094;-76
2023/03/22 05:00:09;;;;;;;11.20;1.50;;;;;;;;;;5110370;28;20047;-76
2023/03/22 05:02:37;;;;;;;21.50;2.50;;;;;;;;;;5110868;28;20024;-76
2023/03/22 05:05:04;;;;;;;34.55;2.65;;;;;;;;;;5114042;28;20035;-75
2023/03/22 05:07:29;;;;;;;9.00;1.80;;;;;;;;;;5102969;28;20036;-76
2023/03/22 05:09:55;;;;;;;17.25;2.30;;;;;;;;;;5105882;28;20498;-76
2023/03/22 05:12:20;;;;;;;14.00;2.08;;;;;;;;;;5106138;28;20077;-75
2023/03/22 05:14:46;;;;;;;15.35;2.35;;;;;;;;;;5106124;28;20071;-76
2023/03/22 05:17:11;;;;;;;18.73;2.15;;;;;;;;;;5112677;28;20120;-76
2023/03/22 05:19:36;;;;;;;19.10;2.67;;;;;;;;;;5113670;28;20034;-76
2023/03/22 05:22:02;;;;;;;20.77;2.85;;;;;;;;;;5106327;28;20387;-75
2023/03/22 05:24:30;;;;;;;21.35;2.58;;;;;;;;;;5104033;28;20048;-76
2023/03/22 05:26:59;;;;;;;15.57;2.10;;;;;;;;;;5105147;28;20471;-76
2023/03/22 05:29:26;;;;;;;26.90;3.25;;;;;;;;;;5107903;28;20039;-76
2023/03/22 05:31:51;;;;;;;21.45;2.38;;;;;;;;;;5111971;28;20039;-75
2023/03/22 05:34:19;;;;;;;16.02;3.22;;;;;;;;;;5111669;28;20035;-75
2023/03/22 05:36:45;;;;;;;27.67;3.25;;;;;;;;;;5109225;28;20044;-76
2023/03/22 05:39:10;;;;;;;31.63;3.47;;;;;;;;;;5101161;28;20047;-76
2023/03/22 05:41:36;;;;;;;20.83;2.50;;;;;;;;;;5112033;28;20024;-76
2023/03/22 05:44:01;;;;;;;29.55;3.30;;;;;;;;;;5113518;28;20047;-75
2023/03/22 05:46:27;;;;;;;21.67;2.75;;;;;;;;;;5112993;28;20152;-75
2023/03/22 05:48:52;;;;;;;20.00;3.00;;;;;;;;;;5102272;28;20028;-76
2023/03/22 05:51:18;;;;;;;25.52;3.20;;;;;;;;;;5103548;28;20115;-76
2023/03/22 05:53:47;;;;;;;18.35;2.83;;;;;;;;;;5102854;28;20036;-76
2023/03/22 05:56:13;;;;;;;23.00;3.65;;;;;;;;;;5094770;28;20383;-76
2023/03/22 05:58:40;;;;;;;30.60;3.30;;;;;;;;;;5108584;28;20031;-76
2023/03/22 06:01:10;;;;;;;18.38;3.60;;;;;;;;;;5113069;28;20490;-76
2023/03/22 06:03:36;;;;;;;25.85;3.38;;;;;;;;;;5112656;28;20024;-76
2023/03/22 06:06:05;;;;;;;22.42;3.38;;;;;;;;;;5109957;28;20401;-75
2023/03/22 06:08:32;;;;;;;28.92;4.07;;;;;;;;;;5112684;28;20040;-75
2023/03/22 06:10:57;;;;;;;32.25;3.72;;;;;;;;;;5115449;28;20024;-76
2023/03/22 06:13:23;;;;;;;29.08;2.85;;;;;;;;;;5104878;28;20035;-76
2023/03/22 06:15:48;;;;;;;27.58;3.60;;;;;;;;;;5116236;28;20032;-76
2023/03/22 06:18:14;;;;;;;30.52;3.92;;;;;;;;;;5114052;28;20040;-76
2023/03/22 06:20:39;;;;;;;19.13;3.40;;;;;;;;;;5114703;28;20043;-76
2023/03/22 06:23:05;;;;;;;18.55;3.70;;;;;;;;;;5104601;28;20035;-76
2023/03/22 06:25:31;;;;;;;28.45;4.07;;;;;;;;;;5111136;28;20032;-76
2023/03/22 06:27:56;;;;;;;28.05;3.92;;;;;;;;;;5115614;28;20036;-76
2023/03/22 06:30:22;;;;;;;26.75;3.65;;;;;;;;;;5103711;28;20032;-75
2023/03/22 06:32:47;;;;;;;22.08;3.13;;;;;;;;;;5115362;28;20046;-76
2023/03/22 06:35:14;;;;;;;21.80;3.83;;;;;;;;;;5115464;28;20075;-76
2023/03/22 06:37:39;;;;;;;27.90;4.20;;;;;;;;;;5103936;28;20067;-75
2023/03/22 06:40:05;;;;;;;38.88;5.03;;;;;;;;;;5112815;28;20059;-76
2023/03/22 06:42:31;;;;;;;31.30;4.15;;;;;;;;;;5105932;28;20032;-76
2023/03/22 06:44:56;;;;;;;28.38;4.00;;;;;;;;;;5113534;28;20043;-75
2023/03/22 06:47:22;;;;;;;27.83;3.63;;;;;;;;;;5116280;28;20036;-76
2023/03/22 06:49:48;;;;;;;32.42;3.35;;;;;;;;;;5112530;28;20040;-76
2023/03/22 06:52:13;;;;;;;40.50;4.82;;;;;;;;;;5113182;28;20123;-75
2023/03/22 06:54:39;;;;;;;27.90;4.03;;;;;;;;;;5113794;28;20043;-76
2023/03/22 06:57:04;;;;;;;30.50;4.10;;;;;;;;;;5114353;28;20063;-76
2023/03/22 06:59:30;;;;;;;28.30;3.53;;;;;;;;;;5111703;28;20407;-75
2023/03/22 07:01:55;;;;;;;30.85;4.07;;;;;;;;;;5110366;28;20093;-75
2023/03/22 07:04:21;;;;;;;23.08;3.75;;;;;;;;;;5116294;28;20387;-76
2023/03/22 07:06:46;;;;;;;29.55;4.05;;;;;;;;;;5111127;28;20065;-76
2023/03/22 07:09:12;;;;;;;28.65;3.35;;;;;;;;;;5115662;28;20038;-75
2023/03/22 07:11:37;;;;;;;34.63;4.00;;;;;;;;;;5108799;28;20027;-76
2023/03/22 07:14:02;;;;;;;34.03;5.78;;;;;;;;;;5116159;28;20035;-75
2023/03/22 07:16:28;;;;;;;33.20;4.65;;;;;;;;;;5115304;28;20023;-76
2023/03/22 07:18:54;;;;;;;30.25;4.30;;;;;;;;;;5116023;28;20027;-75
2023/03/22 07:21:20;;;;;;;37.70;3.90;;;;;;;;;;5106103;28;20376;-76
2023/03/22 07:23:45;;;;;;;32.88;3.83;;;;;;;;;;5102122;28;20046;-76
2023/03/22 07:26:12;;;;;;;21.00;3.88;;;;;;;;;;5114969;28;20046;-76
2023/03/22 07:28:40;;;;;;;31.77;3.83;;;;;;;;;;5110435;28;20028;-77
2023/03/22 07:31:10;;;;;;;30.35;3.53;;;;;;;;;;5114724;28;20140;-76
2023/03/22 07:33:38;;;;;;;27.73;4.90;;;;;;;;;;5102765;28;20044;-76
2023/03/22 07:36:05;;;;;;;31.02;4.55;;;;;;;;;;5109143;28;20137;-77
2023/03/22 07:38:31;;;;;;;31.75;4.00;;;;;;;;;;5114445;28;20050;-77
2023/03/22 07:40:57;;;;;;;30.52;4.78;;;;;;;;;;5114141;28;20027;-77
2023/03/22 07:43:22;;;;;;;27.92;4.38;;;;;;;;;;5111172;28;20074;-77
2023/03/22 07:45:49;;;;;;;36.45;4.32;;;;;;;;;;5110825;28;20043;-77
2023/03/22 07:48:15;;;;;;;19.98;4.00;;;;;;;;;;5109254;28;20067;-76
2023/03/22 07:50:41;;;;;;;29.33;4.07;;;;;;;;;;5113876;28;20063;-76
2023/03/22 07:53:07;;;;;;;29.98;4.18;;;;;;;;;;5115316;28;20043;-76
2023/03/22 07:55:33;;;;;;;29.83;4.20;;;;;;;;;;5110520;28;20049;-76
2023/03/22 07:57:58;;;;;;;31.40;4.47;;;;;;;;;;5111227;28;20116;-77
2023/03/22 08:00:24;;;;;;;33.60;4.40;;;;;;;;;;5108148;28;20043;-76
2023/03/22 08:02:49;;;;;;;31.15;3.90;;;;;;;;;;5103041;28;20043;-77
2023/03/22 08:05:15;;;;;;;30.02;4.53;;;;;;;;;;5106744;28;20039;-76
2023/03/22 08:07:41;;;;;;;21.02;3.53;;;;;;;;;;5111203;28;20036;-77
2023/03/22 08:10:07;;;;;;;23.52;4.10;;;;;;;;;;5114069;28;20031;-77
2023/03/22 08:12:32;;;;;;;32.80;4.45;;;;;;;;;;5104988;28;20063;-78
2023/03/22 08:14:58;;;;;;;32.38;5.07;;;;;;;;;;5114110;28;20091;-78
2023/03/22 08:17:24;;;;;;;31.60;4.68;;;;;;;;;;5114908;28;20038;-78
2023/03/22 08:19:50;;;;;;;33.97;5.03;;;;;;;;;;5110290;28;20107;-78
2023/03/22 08:22:16;;;;;;;30.33;4.88;;;;;;;;;;5104356;28;20039;-78
2023/03/22 08:24:41;;;;;;;37.33;6.32;;;;;;;;;;5114327;28;20479;-77
2023/03/22 08:27:07;;;;;;;24.90;4.53;;;;;;;;;;5108797;28;20036;-77
2023/03/22 08:29:32;;;;;;;26.73;5.43;;;;;;;;;;5114531;28;20468;-75
2023/03/22 08:32:01;;;;;;;25.27;4.22;;;;;;;;;;5114126;28;20526;-75
2023/03/22 08:34:28;;;;;;;27.67;4.63;;;;;;;;;;5114714;28;20042;-76
2023/03/22 08:36:53;;;;;;;26.25;4.30;;;;;;;;;;5111901;28;20042;-76
2023/03/22 08:39:20;;;;;;;31.95;4.32;;;;;;;;;;5112264;28;20106;-76
2023/03/22 08:41:45;;;;;;;30.58;4.55;;;;;;;;;;5111614;28;20028;-75
2023/03/22 08:44:11;;;;;;;25.30;4.80;;;;;;;;;;5110268;28;20039;-75
2023/03/22 08:46:36;;;;;;;29.73;4.60;;;;;;;;;;5101820;28;20471;-75
2023/03/22 08:49:02;;;;;;;27.45;4.72;;;;;;;;;;5110783;28;20391;-75
2023/03/22 08:51:27;;;;;;;31.25;5.32;;;;;;;;;;5110633;28;20108;-77
2023/03/22 08:53:53;;;;;;;30.52;4.70;;;;;;;;;;5108610;28;20032;-77
2023/03/22 08:56:18;;;;;;;34.55;4.78;;;;;;;;;;5102009;28;20444;-78
2023/03/22 08:58:45;;;;;;;26.08;4.65;;;;;;;;;;5101941;28;20039;-78
2023/03/22 09:01:12;;;;;;;29.95;4.95;;;;;;;;;;5102850;28;20032;-78
2023/03/22 09:03:37;;;;;;;30.52;5.38;;;;;;;;;;5100961;28;20395;-75
2023/03/22 09:06:03;;;;;;;33.58;5.20;;;;;;;;;;5099701;28;20050;-78
2023/03/22 09:08:29;;;;;;;31.77;4.30;;;;;;;;;;5108392;28;20035;-78
2023/03/22 09:10:54;;;;;;;33.05;4.38;;;;;;;;;;5102776;28;20035;-77
2023/03/22 09:13:20;;;;;;;25.42;3.83;;;;;;;;;;5100249;28;20040;-77
2023/03/22 09:15:46;;;;;;;29.05;4.00;;;;;;;;;;5104386;28;20182;-76
2023/03/22 09:18:11;;;;;;;33.75;4.80;;;;;;;;;;5096714;28;20040;-77
2023/03/22 09:20:37;;;;;;;31.25;4.18;;;;;;;;;;5106505;28;20102;-77
2023/03/22 09:23:03;;;;;;;31.75;4.10;;;;;;;;;;5100911;28;20032;-77
2023/03/22 09:25:29;;;;;;;27.05;4.00;;;;;;;;;;5102582;28;20043;-77
2023/03/22 09:27:55;;;;;;;30.33;5.15;;;;;;;;;;5097453;28;20355;-76
2023/03/22 09:30:20;;;;;;;29.60;4.70;;;;;;;;;;5104326;28;20486;-76
2023/03/22 09:32:45;;;;;;;28.52;4.55;;;;;;;;;;5106067;28;20127;-76
2023/03/22 09:35:11;;;;;;;31.35;4.53;;;;;;;;;;5104211;28;20072;-76
2023/03/22 09:37:37;;;;;;;25.15;5.00;;;;;;;;;;5104044;28;20084;-77
2023/03/22 09:40:04;;;;;;;25.98;3.95;;;;;;;;;;5091810;28;20040;-76
2023/03/22 09:42:45;;;;;;;26.05;4.47;;;;;;;;;;5096227;28;20132;-76
2023/03/22 09:45:15;;;;;;;24.58;4.07;;;;;;;;;;5100318;28;20039;-77
2023/03/22 09:47:44;;;;;;;24.00;3.85;;;;;;;;;;5102251;28;20039;-77
2023/03/22 09:50:21;;;;;;;24.60;4.35;;;;;;;;;;5103515;28;20036;-78
2023/03/22 09:52:47;;;;;;;23.17;3.72;;;;;;;;;;5098425;28;20054;-78
2023/03/22 09:55:18;;;;;;;32.30;4.03;;;;;;;;;;5111011;28;20056;-78
2023/03/22 09:57:46;;;;;;;27.65;4.72;;;;;;;;;;5099793;28;20103;-77
2023/03/22 10:00:36;;;;;;;24.95;4.05;;;;;;;;;;5109540;28;20039;-77
2023/03/22 10:03:20;;;;;;;26.48;3.95;;;;;;;;;;5103735;28;20323;-77
2023/03/22 10:05:51;;;;;;;24.27;4.32;;;;;;;;;;5109170;28;20039;-77
2023/03/22 10:08:57;;;;;;;25.63;5.40;;;;;;;;;;5098373;28;20043;-76
2023/03/22 10:11:46;;;;;;;25.75;4.03;;;;;;;;;;5103740;28;20463;-77
2023/03/22 10:14:31;;;;;;;23.25;4.05;;;;;;;;;;5092856;28;20036;-77
2023/03/22 10:17:02;;;;;;;29.50;4.63;;;;;;;;;;5106523;28;20031;-77
2023/03/22 10:19:42;;;;;;;28.30;4.55;;;;;;;;;;5108334;28;20028;-76
2023/03/22 10:22:11;;;;;;;26.20;4.00;;;;;;;;;;5111018;28;20381;-78
2023/03/22 10:24:38;;;;;;;25.75;5.10;;;;;;;;;;5112355;28;20027;-78
2023/03/22 10:27:13;;;;;;;31.83;4.95;;;;;;;;;;5109066;28;20047;-77
2023/03/22 10:29:42;;;;;;;19.60;3.65;;;;;;;;;;5107329;28;20032;-77
2023/03/22 10:32:14;;;;;;;28.63;4.20;;;;;;;;;;5110865;28;20122;-77
2023/03/22 10:34:39;;;;;;;27.08;4.60;;;;;;;;;;5110391;28;20150;-77
2023/03/22 10:37:06;;;;;;;23.15;3.80;;;;;;;;;;5110596;28;20455;-76
2023/03/22 10:39:36;;;;;;;21.20;4.35;;;;;;;;;;5111095;28;20442;-77
2023/03/22 10:42:05;;;;;;;33.42;6.18;;;;;;;;;;5110253;28;20394;-77
2023/03/22 10:44:37;;;;;;;36.42;4.53;;;;;;;;;;5111363;28;20089;-77
2023/03/22 10:47:06;;;;;;;23.73;4.88;;;;;;;;;;5110391;28;20051;-76
2023/03/22 10:49:38;;;;;;;41.13;7.82;;;;;;;;;;5110776;28;20041;-77
2023/03/22 10:52:17;;;;;;;18.83;3.78;;;;;;;;;;5103519;28;20068;-78
2023/03/22 10:54:42;;;;;;;19.50;4.05;;;;;;;;;;5107954;28;20126;-77
2023/03/22 10:57:08;;;;;;;26.42;4.05;;;;;;;;;;5111029;28;20448;-78
2023/03/22 10:59:44;;;;;;;33.35;6.60;;;;;;;;;;5109276;28;20436;-77
2023/03/22 11:02:30;;;;;;;26.85;5.53;;;;;;;;;;5110107;28;20103;-77
2023/03/22 11:05:01;;;;;;;25.42;4.07;;;;;;;;;;5106076;28;20039;-77
2023/03/22 11:07:33;;;;;;;21.65;3.92;;;;;;;;;;5108178;28;20515;-78
2023/03/22 11:10:08;;;;;;;23.48;4.00;;;;;;;;;;5112373;27;20097;-77
2023/03/22 11:12:35;;;;;;;23.92;4.43;;;;;;;;;;5109213;28;20039;-78
2023/03/22 11:15:01;;;;;;;22.45;3.28;;;;;;;;;;5110329;28;20542;-79
2023/03/22 11:17:27;;;;;;;20.58;5.03;;;;;;;;;;5110980;28;20024;-77
2023/03/22 11:20:00;;;;;;;24.85;4.60;;;;;;;;;;5112214;27;20505;-78
2023/03/22 11:22:33;;;;;;;;;;;;;;;;;;5110471;28;20116;-78
2023/03/22 11:24:58;;;;;;;21.88;4.10;;;;;;;;;;5101837;28;19919;-78
2023/03/22 11:27:30;;;;;;;28.67;3.72;;;;;;;;;;5111720;28;20489;-77
2023/03/22 11:30:19;;;;;;;23.77;3.03;;;;;;;;;;5110043;28;20027;-77
2023/03/22 11:32:44;;;;;;;17.83;3.75;;;;;;;;;;5109620;28;20039;-77
2023/03/22 11:35:20;;;;;;;25.63;3.08;;;;;;;;;;5110353;28;20474;-78
2023/03/22 11:37:48;;;;;;;23.98;3.28;;;;;;;;;;5109536;28;20444;-78
2023/03/22 11:40:30;;;;;;;24.05;3.40;;;;;;;;;;5110665;28;20031;-77
2023/03/22 11:43:02;;;;;;;17.83;3.10;;;;;;;;;;5091763;28;20131;-78
2023/03/22 11:45:35;;;;;;;24.25;3.58;;;;;;;;;;5110170;27;20507;-77
2023/03/22 11:48:04;;;;;;;15.95;3.03;;;;;;;;;;5108895;28;20154;-78
2023/03/22 11:50:31;;;;;;;18.23;3.15;;;;;;;;;;5089773;28;20431;-78
2023/03/22 11:53:00;;;;;;;26.20;4.38;;;;;;;;;;5108592;28;20487;-77
2023/03/22 11:55:30;;;;;;;22.13;4.00;;;;;;;;;;5108351;28;20082;-78
2023/03/22 11:57:55;;;;;;;15.90;2.53;;;;;;;;;;5106791;28;20043;-78
2023/03/22 12:00:26;;;;;;;19.38;2.55;;;;;;;;;;5111500;28;20046;-78
2023/03/22 12:03:08;;;;;;;15.52;3.28;;;;;;;;;;5101385;28;20044;-77
2023/03/22 12:05:36;;;;;;;19.55;2.30;;;;;;;;;;5108789;28;20043;-78
2023/03/22 12:08:19;;;;;;;16.23;2.55;;;;;;;;;;5108468;28;20495;-77
2023/03/22 12:10:49;;;;;;;17.70;2.72;;;;;;;;;;5103172;28;20084;-77
2023/03/22 12:13:20;;;;;;;16.08;2.58;;;;;;;;;;5108753;28;20051;-77
2023/03/22 12:15:52;;;;;;;24.80;3.03;;;;;;;;;;5107865;28;20088;-77
2023/03/22 12:18:48;;;;;;;14.52;2.80;;;;;;;;;;5110653;28;20048;-78
2023/03/22 12:21:14;;;;;;;11.25;2.42;;;;;;;;;;5090762;28;20047;-78
2023/03/22 12:23:40;;;;;;;19.25;2.85;;;;;;;;;;5110149;28;20438;-78
2023/03/22 12:26:17;;;;;;;17.23;2.80;;;;;;;;;;5109577;28;20118;-78
2023/03/22 12:28:58;;;;;;;13.05;2.13;;;;;;;;;;5103994;28;20035;-78
2023/03/22 12:31:48;;;;;;;10.52;2.20;;;;;;;;;;5110108;28;20036;-77
2023/03/22 12:34:16;;;;;;;17.30;2.92;;;;;;;;;;5108342;28;20118;-76
2023/03/22 12:36:48;;;;;;;20.25;3.35;;;;;;;;;;5109222;28;20059;-78
2023/03/22 12:39:26;;;;;;;17.40;2.75;;;;;;;;;;5109635;28;20380;-78
2023/03/22 12:41:55;;;;;;;12.18;2.42;;;;;;;;;;5088285;28;20043;-78
2023/03/22 12:44:31;;;;;;;15.60;2.70;;;;;;;;;;5106176;28;20043;-77
2023/03/22 12:47:01;;;;;;;16.10;2.95;;;;;;;;;;5108866;28;20047;-78
2023/03/22 12:49:51;;;;;;;12.18;2.78;;;;;;;;;;5108178;28;20036;-77
2023/03/22 12:52:30;;;;;;;11.73;2.38;;;;;;;;;;5104871;28;20116;-78
2023/03/22 12:54:58;;;;;;;23.30;2.75;;;;;;;;;;5103021;28;20062;-77
2023/03/22 12:57:23;;;;;;;16.48;2.35;;;;;;;;;;5108852;28;20475;-79
2023/03/22 12:59:51;;;;;;;17.33;3.03;;;;;;;;;;5105514;28;20031;-78
2023/03/22 13:02:28;;;;;;;16.65;2.67;;;;;;;;;;5108607;28;20036;-78
2023/03/22 13:04:56;;;;;;;13.00;2.92;;;;;;;;;;5108266;28;20044;-78
2023/03/22 13:07:48;;;;;;;20.25;2.65;;;;;;;;;;5108658;28;20039;-78
2023/03/22 13:10:35;;;;;;;10.90;2.28;;;;;;;;;;5098305;28;20042;-79
2023/03/22 13:13:22;;;;;;;19.65;3.05;;;;;;;;;;5089035;28;20079;-78
2023/03/22 13:16:02;;;;;;;17.67;2.50;;;;;;;;;;5092887;28;20035;-77
2023/03/22 13:18:36;;;;;;;15.80;2.90;;;;;;;;;;5108642;28;20047;-79
2023/03/22 13:21:08;;;;;;;12.63;2.50;;;;;;;;;;5108956;28;20058;-78
2023/03/22 13:23:33;;;;;;;17.75;2.70;;;;;;;;;;5109847;28;20170;-78
2023/03/22 13:26:01;;;;;;;13.57;2.10;;;;;;;;;;5110117;28;20172;-78
2023/03/22 13:28:27;;;;;;;13.55;2.70;;;;;;;;;;5107494;28;20434;-77
2023/03/22 13:30:57;;;;;;;29.30;3.83;;;;;;;;;;5109250;28;20073;-78
2023/03/22 13:33:28;;;;;;;12.25;2.83;;;;;;;;;;5108334;28;20387;-78
2023/03/22 13:35:56;;;;;;;10.00;2.00;;;;;;;;;;5108666;28;20043;-78
2023/03/22 13:38:25;;;;;;;14.75;2.55;;;;;;;;;;5109888;28;20096;-78
2023/03/22 13:40:53;;;;;;;21.30;3.10;;;;;;;;;;5109793;28;20068;-77
2023/03/22 13:43:34;;;;;;;14.38;2.28;;;;;;;;;;5107926;28;20510;-78
2023/03/22 13:46:10;;;;;;;14.07;2.55;;;;;;;;;;5105889;28;20487;-78
2023/03/22 13:48:51;;;;;;;20.45;2.88;;;;;;;;;;5108289;28;20127;-77
2023/03/22 13:51:28;;;;;;;25.83;3.17;;;;;;;;;;5109557;28;20036;-79
2023/03/22 13:53:59;;;;;;;15.95;2.50;;;;;;;;;;5108285;28;20036;-78
2023/03/22 13:56:48;;;;;;;26.60;3.30;;;;;;;;;;5108634;28;20046;-77
2023/03/22 13:59:26;;;;;;;20.90;2.72;;;;;;;;;;5108317;28;20046;-79
2023/03/22 14:02:17;;;;;;;18.40;2.75;;;;;;;;;;5098705;28;20440;-77
2023/03/22 14:04:48;;;;;;;18.50;2.90;;;;;;;;;;5097646;28;20085;-78
2023/03/22 14:07:22;;;;;;;19.73;3.17;;;;;;;;;;5108430;28;20106;-79
2023/03/22 14:09:53;;;;;;;16.73;3.10;;;;;;;;;;5105169;28;20168;-78
2023/03/22 14:12:31;;;;;;;10.95;2.85;;;;;;;;;;5080618;28;20040;-79
2023/03/22 14:15:01;;;;;;;19.40;3.35;;;;;;;;;;5107549;28;20034;-79
2023/03/22 14:17:47;;;;;;;15.02;2.92;;;;;;;;;;5107233;28;20552;-78
2023/03/22 14:20:16;;;;;;;20.27;3.00;;;;;;;;;;5108563;28;20050;-77
2023/03/22 14:22:49;;;;;;;17.08;3.13;;;;;;;;;;5109138;28;20497;-78
2023/03/22 14:25:17;;;;;;;15.75;2.78;;;;;;;;;;5103553;28;20105;-78
2023/03/22 14:27:43;;;;;;;11.27;2.92;;;;;;;;;;5102750;28;20043;-77
2023/03/22 14:30:39;;;;;;;12.57;2.55;;;;;;;;;;5108807;28;20031;-77
2023/03/22 14:33:12;;;;;;;12.00;2.33;;;;;;;;;;5112129;28;20646;-78
2023/03/22 14:35:40;;;;;;;9.13;2.00;;;;;;;;;;5112587;28;20105;-78
2023/03/22 14:38:28;;;;;;;10.85;2.00;;;;;;;;;;5111068;28;20047;-78
2023/03/22 14:41:06;;;;;;;9.45;1.70;;;;;;;;;;5111576;28;20043;-79
2023/03/22 14:43:31;;;;;;;11.93;1.77;;;;;;;;;;5112426;28;20168;-78
2023/03/22 14:46:09;;;;;;;10.27;1.83;;;;;;;;;;5112576;28;20122;-78
2023/03/22 14:48:37;;;;;;;7.45;1.70;;;;;;;;;;5108618;28;20046;-78